ADDS TAF Board (Experimental) INFO Settings
IDs: Format: Expanded Condensed

KMIA - Miami Intl, FL, US

Issued at 0843 UTC 06 Jul 2015
Updated at: 1123 UTC 06 Jul 2015
Time1053Z 06/12Z 06/13Z 06/14Z 06/15Z 06/16Z 06/17Z 06/18Z 06/19Z 06/20Z 06/21Z 06/22Z 06/23Z 07/00Z
Type OBS PRVL PRVL PRVL PRVL PRVL PRVL PRVL PRVL PRVL PRVL PRVL PRVL PRVL
VIS 10 >6 >6 >6 >6 >6 >6 >6 >6 >6 >6 >6 >6 >6
CIG 250 120 120 -- -- -- -- -- -- -- -- -- -- --
Cover OVC BKN BKN SCT SCT SCT SCT SCT SCT SCT SCT SCT SCT SKC
FltCat VFR VFR VFR VFR VFR VFR VFR VFR VFR VFR VFR VFR VFR VFR
WX -- -- -- -- -- -- -- -- -- -- -- -- -- --
WDir 110 100 100 120 120 120 120 120 120 120 120 120 120 100
WSpd 10 4 4 11 11 11 11 11 11 11 11 11 11 5
WGst -- -- -- -- -- -- -- -- -- -- -- -- -- --
R08/26
XWnd -4 -1 -1 -6 -6 -6 -6 -6 -6 -6 -6 -6 -6 -1
HWnd 9 4 4 9 9 9 9 9 9 9 9 9 9 5
R09/27
XWnd -4 -1 -1 -6 -6 -6 -6 -6 -6 -6 -6 -6 -6 -1
HWnd 9 4 4 9 9 9 9 9 9 9 9 9 9 5
R12/30
XWnd 2 1 1 -0 -0 -0 -0 -0 -0 -0 -0 -0 -0 2
HWnd 10 4 4 11 11 11 11 11 11 11 11 11 11 5

NOTE: TEMPO conditions in [brackets]. Keep in mind TEMPO conditions might be better (lower impact) than prevailing conditions.

Raw TAF
KMIA 060843Z 0609/0706 10004KT P6SM FEW050 BKN120
  FM061400 12011KT P6SM SCT030
  FM070000 10005KT P6SM SKC


Raw METAR
KMIA 061053Z 11010KT 10SM FEW100 SCT220 OVC250 26/23 A3011 RMK AO2 SLP195 T02610233
KMIA 060953Z 10007KT 10SM BKN210 BKN250 25/22 A3012 RMK AO2 SLP200 T02500217
KMIA 060853Z 08006KT 10SM BKN180 OVC250 24/22 A3013 RMK AO2 SLP202 CB DSNT E AND S-SW 60048 T02390217 58017

METAR Board
Radar Display
Forecast Discussion

TAF Board Legend

Potential Impact
Threat None Slight Moderate High
Visibility (sm) ≥5.1 5.1>X≥3 3>X≥1 <1
Ceiling (100 ft) ≥30.1 30.1>X≥10 10>X≥5 <5
Wind Speed (kt) <10 10≤X<20 20≤X<30 ≥30
Wind Gust (kt) <15 15≤X<25 25≤X<35 ≥35
Weather No Wx Reported VCTS,-TS,-FZRA,SN TS,FZRA +TS,+FZRA,+SN